createdAt,value
2023-01-02T00:00:54.428Z,1005.70
2023-01-02T00:01:54.319Z,1005.67
2023-01-02T00:02:54.421Z,1005.56
2023-01-02T00:03:54.361Z,1005.56
2023-01-02T00:04:54.245Z,1005.62
2023-01-02T00:05:54.220Z,1005.59
2023-01-02T00:06:54.193Z,1005.64
2023-01-02T00:07:54.183Z,1005.67
2023-01-02T00:08:54.147Z,1005.69
2023-01-02T00:09:54.133Z,1005.63
2023-01-02T00:10:54.104Z,1005.60
2023-01-02T00:11:54.097Z,1005.69
2023-01-02T00:12:54.099Z,1005.67
2023-01-02T00:13:54.046Z,1005.64
2023-01-02T00:14:54.011Z,1005.61
2023-01-02T00:15:54.050Z,1005.60
2023-01-02T00:16:53.968Z,1005.60
2023-01-02T00:17:53.951Z,1005.57
2023-01-02T00:18:53.922Z,1005.56
2023-01-02T00:19:53.915Z,1005.53
2023-01-02T00:20:53.873Z,1005.49
2023-01-02T00:21:53.853Z,1005.53
2023-01-02T00:22:53.823Z,1005.51
2023-01-02T00:23:53.813Z,1005.52
2023-01-02T00:24:53.775Z,1005.50
2023-01-02T00:25:53.779Z,1005.52
2023-01-02T00:26:53.733Z,1005.52
2023-01-02T00:27:53.707Z,1005.49
2023-01-02T00:28:53.779Z,1005.52
2023-01-02T00:29:53.658Z,1005.54
2023-01-02T00:30:53.689Z,1005.54
2023-01-02T00:31:53.610Z,1005.56
2023-01-02T00:32:53.588Z,1005.56
2023-01-02T00:33:53.565Z,1005.56
2023-01-02T00:34:53.537Z,1005.54
2023-01-02T00:35:53.521Z,1005.55
2023-01-02T00:36:53.500Z,1005.49
2023-01-02T00:37:53.467Z,1005.47
2023-01-02T00:38:53.449Z,1005.46
2023-01-02T00:39:53.424Z,1005.44
2023-01-02T00:40:53.400Z,1005.40
2023-01-02T00:41:53.376Z,1005.46
2023-01-02T00:42:53.355Z,1005.50
2023-01-02T00:43:53.332Z,1005.47
2023-01-02T00:44:53.346Z,1005.56
2023-01-02T00:45:53.285Z,1005.55
2023-01-02T00:46:53.394Z,1005.58
2023-01-02T00:47:53.236Z,1005.56
2023-01-02T00:48:53.302Z,1005.59
2023-01-02T00:49:53.186Z,1005.61
2023-01-02T00:50:53.184Z,1005.65
2023-01-02T00:51:53.143Z,1005.65
2023-01-02T00:52:53.123Z,1005.67
2023-01-02T00:53:53.091Z,1005.60
2023-01-02T00:54:53.083Z,1005.61
2023-01-02T00:55:53.053Z,1005.59
2023-01-02T00:56:53.042Z,1005.62
2023-01-02T00:57:53.001Z,1005.64
2023-01-02T00:58:52.981Z,1005.59
2023-01-02T00:59:52.967Z,1005.62
2023-01-02T01:00:53.013Z,1005.66
2023-01-02T01:01:53.071Z,1005.65
2023-01-02T01:02:52.995Z,1005.67
2023-01-02T01:03:52.862Z,1005.62
2023-01-02T01:04:52.850Z,1005.68
2023-01-02T01:05:52.842Z,1005.66
2023-01-02T01:06:52.821Z,1005.55
2023-01-02T01:07:52.778Z,1005.59
2023-01-02T01:08:52.755Z,1005.57
2023-01-02T01:09:52.727Z,1005.51
2023-01-02T01:10:52.743Z,1005.53
2023-01-02T01:11:52.678Z,1005.55
2023-01-02T01:12:52.674Z,1005.54
2023-01-02T01:13:52.635Z,1005.51
2023-01-02T01:14:52.617Z,1005.54
2023-01-02T01:15:52.603Z,1005.48
2023-01-02T01:16:52.589Z,1005.48
2023-01-02T01:17:52.534Z,1005.49
2023-01-02T01:18:52.519Z,1005.45
2023-01-02T01:19:52.495Z,1005.45
2023-01-02T01:20:52.472Z,1005.45
2023-01-02T01:21:52.449Z,1005.45
2023-01-02T01:22:52.440Z,1005.41
2023-01-02T01:23:52.435Z,1005.37
2023-01-02T01:24:52.378Z,1005.37
2023-01-02T01:25:52.352Z,1005.35
2023-01-02T01:26:52.336Z,1005.29
2023-01-02T01:27:52.308Z,1005.28
2023-01-02T01:28:52.291Z,1005.24
2023-01-02T01:29:52.285Z,1005.18
2023-01-02T01:30:52.237Z,1005.20
2023-01-02T01:31:52.299Z,1005.26
2023-01-02T01:32:52.217Z,1005.31
2023-01-02T01:33:52.165Z,1005.33
2023-01-02T01:34:52.161Z,1005.32
2023-01-02T01:35:52.120Z,1005.32
2023-01-02T01:36:52.105Z,1005.30
2023-01-02T01:37:52.076Z,1005.27
2023-01-02T01:38:52.053Z,1005.26
2023-01-02T01:39:56.341Z,1005.22
2023-01-02T01:40:52.008Z,1005.18
2023-01-02T01:41:51.986Z,1005.15
2023-01-02T01:42:56.053Z,1005.21
2023-01-02T01:43:51.930Z,1005.20
2023-01-02T01:44:51.921Z,1005.16
2023-01-02T01:45:51.973Z,1005.16
2023-01-02T01:46:51.863Z,1005.21
2023-01-02T01:47:51.837Z,1005.22
2023-01-02T01:48:51.847Z,1005.22
2023-01-02T01:49:51.795Z,1005.24
2023-01-02T01:50:51.770Z,1005.27
2023-01-02T01:51:51.761Z,1005.23
2023-01-02T01:52:51.731Z,1005.25
2023-01-02T01:53:51.706Z,1005.22
2023-01-02T01:54:51.689Z,1005.26
2023-01-02T01:55:51.657Z,1005.26
2023-01-02T01:56:51.639Z,1005.24
2023-01-02T01:57:51.613Z,1005.30
2023-01-02T01:58:51.586Z,1005.29
2023-01-02T01:59:51.563Z,1005.27
2023-01-02T02:00:51.634Z,1005.27
2023-01-02T02:01:51.844Z,1005.26
2023-01-02T02:02:51.593Z,1005.27
2023-01-02T02:03:51.482Z,1005.32
2023-01-02T02:04:51.570Z,1005.31
2023-01-02T02:05:51.432Z,1005.32
2023-01-02T02:06:51.405Z,1005.31
2023-01-02T02:07:51.380Z,1005.32
2023-01-02T02:08:51.401Z,1005.35
2023-01-02T02:09:51.338Z,1005.37
2023-01-02T02:10:51.309Z,1005.36
2023-01-02T02:11:51.290Z,1005.34
2023-01-02T02:12:51.267Z,1005.43
2023-01-02T02:13:51.237Z,1005.40
2023-01-02T02:14:51.227Z,1005.38
2023-01-02T02:15:51.199Z,1005.40
2023-01-02T02:16:51.320Z,1005.42
2023-01-02T02:17:51.153Z,1005.41
2023-01-02T02:18:51.129Z,1005.34
2023-01-02T02:19:51.099Z,1005.27
2023-01-02T02:20:51.256Z,1005.40
2023-01-02T02:21:51.056Z,1005.31
2023-01-02T02:22:51.045Z,1005.32
2023-01-02T02:23:51.009Z,1005.29
2023-01-02T02:24:50.986Z,1005.41
2023-01-02T02:25:50.961Z,1005.32
2023-01-02T02:26:50.936Z,1005.29
2023-01-02T02:27:50.913Z,1005.30
2023-01-02T02:28:50.903Z,1005.29
2023-01-02T02:29:50.870Z,1005.32
2023-01-02T02:30:50.842Z,1005.34
2023-01-02T02:31:50.863Z,1005.31
2023-01-02T02:32:50.799Z,1005.33
2023-01-02T02:33:50.774Z,1005.30
2023-01-02T02:34:50.753Z,1005.29
2023-01-02T02:35:50.744Z,1005.30
2023-01-02T02:36:50.735Z,1005.31
2023-01-02T02:37:50.681Z,1005.27
2023-01-02T02:38:50.672Z,1005.25
2023-01-02T02:39:50.634Z,1005.27
2023-01-02T02:40:50.618Z,1005.22
2023-01-02T02:41:50.586Z,1005.18
2023-01-02T02:42:50.573Z,1005.18
2023-01-02T02:43:50.545Z,1005.18
2023-01-02T02:44:50.517Z,1005.15
2023-01-02T02:45:50.521Z,1005.14
2023-01-02T02:46:50.469Z,1005.10
2023-01-02T02:47:50.459Z,1005.11
2023-01-02T02:48:50.431Z,1005.14
2023-01-02T02:49:50.402Z,1005.11
2023-01-02T02:50:50.382Z,1005.10
2023-01-02T02:51:50.364Z,1005.15
2023-01-02T02:52:50.360Z,1005.10
2023-01-02T02:53:50.315Z,1005.10
2023-01-02T02:54:50.285Z,1005.11
2023-01-02T02:55:50.259Z,1005.13
2023-01-02T02:56:50.232Z,1005.11
2023-01-02T02:57:50.219Z,1005.11
2023-01-02T02:58:50.192Z,1005.15
2023-01-02T02:59:50.174Z,1005.14
2023-01-02T03:00:50.192Z,1005.18
2023-01-02T03:01:50.318Z,1005.16
2023-01-02T03:02:50.228Z,1005.22
2023-01-02T03:03:50.078Z,1005.20
2023-01-02T03:04:50.060Z,1005.21
2023-01-02T03:05:50.043Z,1005.20
2023-01-02T03:06:50.004Z,1005.19
2023-01-02T03:07:49.977Z,1005.20
2023-01-02T03:08:49.983Z,1005.18
2023-01-02T03:09:49.932Z,1005.19
2023-01-02T03:10:49.920Z,1005.13
2023-01-02T03:11:49.901Z,1005.13
2023-01-02T03:12:49.885Z,1005.19
2023-01-02T03:13:49.842Z,1005.17
2023-01-02T03:14:49.825Z,1005.15
2023-01-02T03:15:49.802Z,1005.16
2023-01-02T03:16:49.804Z,1005.17
2023-01-02T03:17:49.747Z,1005.14
2023-01-02T03:18:49.728Z,1005.13
2023-01-02T03:19:49.706Z,1005.14
2023-01-02T03:20:49.693Z,1005.08
2023-01-02T03:21:49.651Z,1005.16
2023-01-02T03:22:49.648Z,1005.16
2023-01-02T03:23:49.618Z,1005.15
2023-01-02T03:24:49.603Z,1005.10
2023-01-02T03:25:49.620Z,1005.12
2023-01-02T03:26:49.550Z,1005.10
2023-01-02T03:27:49.513Z,1005.13
2023-01-02T03:28:49.495Z,1005.10
2023-01-02T03:29:49.465Z,1005.08
2023-01-02T03:30:49.485Z,1005.01
2023-01-02T03:31:49.416Z,1005.01
2023-01-02T03:32:49.401Z,1005.03
2023-01-02T03:33:49.378Z,1004.94
2023-01-02T03:34:49.363Z,1005.01
2023-01-02T03:35:49.333Z,1004.92
2023-01-02T03:36:49.314Z,1004.95
2023-01-02T03:37:49.283Z,1004.95
2023-01-02T03:38:49.260Z,1004.91
2023-01-02T03:39:49.247Z,1004.95
2023-01-02T03:40:49.232Z,1004.97
2023-01-02T03:41:49.188Z,1005.00
2023-01-02T03:42:49.186Z,1004.97
2023-01-02T03:43:54.841Z,1004.99
2023-01-02T03:44:49.120Z,1004.98
2023-01-02T03:45:49.158Z,1005.04
2023-01-02T03:46:49.069Z,1005.05
2023-01-02T03:47:49.060Z,1005.04
2023-01-02T03:48:49.031Z,1005.05
2023-01-02T03:49:49.001Z,1005.14
2023-01-02T03:50:48.985Z,1005.19
2023-01-02T03:51:48.958Z,1005.21
2023-01-02T03:52:48.949Z,1005.26
2023-01-02T03:53:48.903Z,1005.17
2023-01-02T03:54:48.886Z,1005.19
2023-01-02T03:55:48.865Z,1005.23
2023-01-02T03:56:48.859Z,1005.23
2023-01-02T03:57:53.603Z,1005.28
2023-01-02T03:58:48.790Z,1005.34
2023-01-02T03:59:48.769Z,1005.32
2023-01-02T04:00:48.747Z,1005.32
2023-01-02T04:01:48.892Z,1005.38
2023-01-02T04:02:48.762Z,1005.34
2023-01-02T04:03:48.671Z,1005.40
2023-01-02T04:04:50.917Z,1005.43
2023-01-02T04:05:48.627Z,1005.36
2023-01-02T04:06:48.608Z,1005.34
2023-01-02T04:07:48.575Z,1005.38
2023-01-02T04:08:48.563Z,1005.31
2023-01-02T04:09:48.526Z,1005.32
2023-01-02T04:10:51.800Z,1005.33
2023-01-02T04:11:48.483Z,1005.35
2023-01-02T04:12:48.582Z,1005.36
2023-01-02T04:13:48.440Z,1005.37
2023-01-02T04:14:48.415Z,1005.36
2023-01-02T04:15:48.414Z,1005.37
2023-01-02T04:16:48.369Z,1005.34
2023-01-02T04:17:48.338Z,1005.41
2023-01-02T04:18:48.327Z,1005.32
2023-01-02T04:19:48.298Z,1005.31
2023-01-02T04:20:48.281Z,1005.30
2023-01-02T04:21:48.252Z,1005.31
2023-01-02T04:22:48.226Z,1005.34
2023-01-02T04:23:48.200Z,1005.34
2023-01-02T04:24:48.194Z,1005.38
2023-01-02T04:25:48.153Z,1005.39
2023-01-02T04:26:48.138Z,1005.36
2023-01-02T04:27:48.116Z,1005.38
2023-01-02T04:28:48.110Z,1005.43
2023-01-02T04:29:48.083Z,1005.47
2023-01-02T04:30:48.098Z,1005.37
2023-01-02T04:31:48.013Z,1005.40
2023-01-02T04:32:47.993Z,1005.32
2023-01-02T04:33:47.964Z,1005.38
2023-01-02T04:34:47.945Z,1005.40
2023-01-02T04:35:47.928Z,1005.49
2023-01-02T04:36:47.903Z,1005.45
2023-01-02T04:37:47.889Z,1005.50
2023-01-02T04:38:47.854Z,1005.47
2023-01-02T04:39:47.838Z,1005.49
2023-01-02T04:40:47.807Z,1005.45
2023-01-02T04:41:47.780Z,1005.32
2023-01-02T04:42:47.759Z,1005.40
2023-01-02T04:43:47.753Z,1005.40
2023-01-02T04:44:47.738Z,1005.40
2023-01-02T04:45:47.691Z,1005.35
2023-01-02T04:46:47.671Z,1005.36
2023-01-02T04:47:47.645Z,1005.32
2023-01-02T04:48:47.616Z,1005.35
2023-01-02T04:49:47.590Z,1005.32
2023-01-02T04:50:47.571Z,1005.31
2023-01-02T04:51:47.547Z,1005.28
2023-01-02T04:52:47.525Z,1005.28
2023-01-02T04:53:47.496Z,1005.33
2023-01-02T04:54:47.472Z,1005.26
2023-01-02T04:55:47.449Z,1005.30
2023-01-02T04:56:47.428Z,1005.34
2023-01-02T04:57:47.406Z,1005.39
2023-01-02T04:58:47.386Z,1005.40
2023-01-02T04:59:47.359Z,1005.44
2023-01-02T05:00:47.455Z,1005.41
2023-01-02T05:01:47.430Z,1005.42
2023-01-02T05:02:47.328Z,1005.39
2023-01-02T05:03:47.351Z,1005.40
2023-01-02T05:04:47.245Z,1005.38
2023-01-02T05:05:47.223Z,1005.42
2023-01-02T05:06:47.189Z,1005.39
2023-01-02T05:07:47.178Z,1005.37
2023-01-02T05:08:47.148Z,1005.42
2023-01-02T05:09:47.128Z,1005.41
2023-01-02T05:10:47.107Z,1005.39
2023-01-02T05:11:47.075Z,1005.43
2023-01-02T05:12:47.057Z,1005.44
2023-01-02T05:13:47.039Z,1005.39
2023-01-02T05:14:47.009Z,1005.41
2023-01-02T05:15:47.018Z,1005.41
2023-01-02T05:16:46.989Z,1005.41
2023-01-02T05:17:46.939Z,1005.48
2023-01-02T05:18:46.906Z,1005.45
2023-01-02T05:19:46.894Z,1005.41
2023-01-02T05:20:46.862Z,1005.44
2023-01-02T05:21:46.848Z,1005.43
2023-01-02T05:22:46.817Z,1005.48
2023-01-02T05:23:46.801Z,1005.49
2023-01-02T05:24:46.770Z,1005.52
2023-01-02T05:25:46.756Z,1005.54
2023-01-02T05:26:46.724Z,1005.55
2023-01-02T05:27:46.699Z,1005.57
2023-01-02T05:28:46.686Z,1005.62
2023-01-02T05:29:46.653Z,1005.56
2023-01-02T05:30:46.635Z,1005.60
2023-01-02T05:31:46.614Z,1005.62
2023-01-02T05:32:46.609Z,1005.52
2023-01-02T05:33:46.566Z,1005.55
2023-01-02T05:34:46.531Z,1005.59
2023-01-02T05:35:46.514Z,1005.57
2023-01-02T05:36:46.493Z,1005.60
2023-01-02T05:37:46.468Z,1005.57
2023-01-02T05:38:46.444Z,1005.55
2023-01-02T05:39:46.420Z,1005.51
2023-01-02T05:40:46.409Z,1005.53
2023-01-02T05:41:46.371Z,1005.52
2023-01-02T05:42:46.343Z,1005.57
2023-01-02T05:43:46.327Z,1005.61
2023-01-02T05:44:46.296Z,1005.61
2023-01-02T05:45:46.278Z,1005.59
2023-01-02T05:46:46.283Z,1005.68
2023-01-02T05:47:46.236Z,1005.70
2023-01-02T05:48:46.242Z,1005.76
2023-01-02T05:49:46.186Z,1005.65
2023-01-02T05:50:46.159Z,1005.76
2023-01-02T05:51:46.134Z,1005.71
2023-01-02T05:52:46.253Z,1005.73
2023-01-02T05:53:46.089Z,1005.69
2023-01-02T05:54:46.071Z,1005.77
2023-01-02T05:55:46.042Z,1005.73
2023-01-02T05:56:46.026Z,1005.85
2023-01-02T05:57:45.997Z,1005.82
2023-01-02T05:58:45.981Z,1005.80
2023-01-02T05:59:45.958Z,1005.80
2023-01-02T06:00:45.928Z,1005.83
2023-01-02T06:01:46.014Z,1005.83
2023-01-02T06:02:48.509Z,1005.81
2023-01-02T06:03:45.950Z,1005.77
2023-01-02T06:04:45.973Z,1005.77
2023-01-02T06:05:45.806Z,1005.76
2023-01-02T06:06:45.789Z,1005.81
2023-01-02T06:07:45.764Z,1005.80
2023-01-02T06:08:45.740Z,1005.81
2023-01-02T06:09:45.713Z,1005.76
2023-01-02T06:10:45.689Z,1005.76
2023-01-02T06:11:45.666Z,1005.73
2023-01-02T06:12:45.646Z,1005.79
2023-01-02T06:13:45.616Z,1005.77
2023-01-02T06:14:45.595Z,1005.79
2023-01-02T06:15:45.574Z,1005.76
2023-01-02T06:16:45.638Z,1005.74
2023-01-02T06:17:45.530Z,1005.74
2023-01-02T06:18:45.504Z,1005.73
2023-01-02T06:19:51.931Z,1005.83
2023-01-02T06:20:45.475Z,1005.76
2023-01-02T06:21:45.433Z,1005.77
2023-01-02T06:22:45.407Z,1005.78
2023-01-02T06:23:45.390Z,1005.82
2023-01-02T06:24:45.363Z,1005.79
2023-01-02T06:25:45.359Z,1005.83
2023-01-02T06:26:45.308Z,1005.83
2023-01-02T06:27:45.291Z,1005.82
2023-01-02T06:28:45.262Z,1005.80
2023-01-02T06:29:45.244Z,1005.85
2023-01-02T06:30:45.222Z,1005.85
2023-01-02T06:31:51.060Z,1005.89
2023-01-02T06:32:45.169Z,1005.85
2023-01-02T06:33:45.168Z,1005.93
2023-01-02T06:34:45.147Z,1005.92
2023-01-02T06:35:45.106Z,1005.94
2023-01-02T06:36:45.104Z,1005.94
2023-01-02T06:37:45.061Z,1005.99
2023-01-02T06:38:45.032Z,1005.98
2023-01-02T06:39:45.007Z,1006.02
2023-01-02T06:40:44.995Z,1005.99
2023-01-02T06:41:44.961Z,1005.97
2023-01-02T06:42:44.934Z,1005.98
2023-01-02T06:43:44.913Z,1006.02
2023-01-02T06:44:44.890Z,1005.97
2023-01-02T06:45:44.920Z,1006.01
2023-01-02T06:46:44.839Z,1005.99
2023-01-02T06:47:44.818Z,1005.96
2023-01-02T06:48:44.797Z,1005.99
2023-01-02T06:49:44.772Z,1006.02
2023-01-02T06:50:44.747Z,1005.99
2023-01-02T06:51:44.730Z,1005.89
2023-01-02T06:52:44.724Z,1005.94
2023-01-02T06:53:44.679Z,1005.98
2023-01-02T06:54:44.647Z,1005.96
2023-01-02T06:55:44.631Z,1005.98
2023-01-02T06:56:44.616Z,1005.98
2023-01-02T06:57:44.577Z,1005.98
2023-01-02T06:58:44.560Z,1005.99
2023-01-02T06:59:44.533Z,1005.98
2023-01-02T07:00:44.601Z,1006.00
2023-01-02T07:01:44.848Z,1006.00
2023-01-02T07:02:44.654Z,1006.05
2023-01-02T07:03:44.443Z,1006.05
2023-01-02T07:04:44.415Z,1006.02
2023-01-02T07:05:44.391Z,1006.04
2023-01-02T07:06:44.361Z,1006.06
2023-01-02T07:07:44.351Z,1006.08
2023-01-02T07:08:44.340Z,1006.10
2023-01-02T07:09:44.310Z,1006.13
2023-01-02T07:10:47.983Z,1006.08
2023-01-02T07:11:44.247Z,1006.14
2023-01-02T07:12:44.223Z,1006.11
2023-01-02T07:13:44.211Z,1006.13
2023-01-02T07:14:44.181Z,1006.14
2023-01-02T07:15:44.160Z,1006.12
2023-01-02T07:16:44.173Z,1006.20
2023-01-02T07:17:44.108Z,1006.12
2023-01-02T07:18:44.092Z,1006.14
2023-01-02T07:19:48.353Z,1006.19
2023-01-02T07:20:44.038Z,1006.21
2023-01-02T07:21:44.015Z,1006.14
2023-01-02T07:22:43.990Z,1006.21
2023-01-02T07:23:43.967Z,1006.13
2023-01-02T07:24:43.965Z,1006.12
2023-01-02T07:25:44.795Z,1006.19
2023-01-02T07:26:43.922Z,1006.17
2023-01-02T07:27:43.910Z,1006.19
2023-01-02T07:28:43.860Z,1006.13
2023-01-02T07:29:43.832Z,1006.17
2023-01-02T07:30:43.798Z,1006.20
2023-01-02T07:31:43.831Z,1006.27
2023-01-02T07:32:43.750Z,1006.23
2023-01-02T07:33:43.739Z,1006.21
2023-01-02T07:34:43.709Z,1006.21
2023-01-02T07:35:43.685Z,1006.29
2023-01-02T07:36:43.668Z,1006.24
2023-01-02T07:37:43.641Z,1006.26
2023-01-02T07:38:43.628Z,1006.30
2023-01-02T07:39:43.589Z,1006.34
2023-01-02T07:40:43.591Z,1006.27
2023-01-02T07:41:43.565Z,1006.33
2023-01-02T07:42:43.524Z,1006.31
2023-01-02T07:43:43.501Z,1006.29
2023-01-02T07:44:43.475Z,1006.28
2023-01-02T07:45:49.553Z,1006.36
2023-01-02T07:46:43.419Z,1006.38
2023-01-02T07:47:43.403Z,1006.43
2023-01-02T07:48:43.381Z,1006.44
2023-01-02T07:49:43.358Z,1006.39
2023-01-02T07:50:43.337Z,1006.44
2023-01-02T07:51:43.306Z,1006.53
2023-01-02T07:52:43.309Z,1006.44
2023-01-02T07:53:43.264Z,1006.53
2023-01-02T07:54:43.238Z,1006.56
2023-01-02T07:55:43.211Z,1006.53
2023-01-02T07:56:43.208Z,1006.52
2023-01-02T07:57:43.169Z,1006.54
2023-01-02T07:58:43.145Z,1006.59
2023-01-02T07:59:43.119Z,1006.54
2023-01-02T08:00:43.095Z,1006.64
2023-01-02T08:01:43.144Z,1006.62
2023-01-02T08:02:43.111Z,1006.70
2023-01-02T08:03:43.086Z,1006.71
2023-01-02T08:04:42.997Z,1006.70
2023-01-02T08:05:42.976Z,1006.71
2023-01-02T08:06:42.956Z,1006.72
2023-01-02T08:07:45.193Z,1006.72
2023-01-02T08:08:42.907Z,1006.73
2023-01-02T08:09:42.892Z,1006.72
2023-01-02T08:10:42.855Z,1006.74
2023-01-02T08:11:42.837Z,1006.74
2023-01-02T08:12:42.840Z,1006.79
2023-01-02T08:13:42.783Z,1006.79
2023-01-02T08:14:42.758Z,1006.77
2023-01-02T08:15:42.736Z,1006.78
2023-01-02T08:16:42.770Z,1006.83
2023-01-02T08:17:42.695Z,1006.84
2023-01-02T08:18:42.675Z,1006.86
2023-01-02T08:19:42.646Z,1006.85
2023-01-02T08:20:42.620Z,1006.87
2023-01-02T08:21:42.601Z,1006.86
2023-01-02T08:22:42.570Z,1006.91
2023-01-02T08:23:42.553Z,1007.01
2023-01-02T08:24:42.523Z,1006.95
2023-01-02T08:25:42.516Z,1007.03
2023-01-02T08:26:42.485Z,1006.98
2023-01-02T08:27:42.456Z,1006.97
2023-01-02T08:28:42.452Z,1006.96
2023-01-02T08:29:42.408Z,1006.97
2023-01-02T08:30:42.407Z,1007.04
2023-01-02T08:31:44.081Z,1007.03
2023-01-02T08:32:42.339Z,1007.00
2023-01-02T08:33:42.324Z,1007.04
2023-01-02T08:34:42.283Z,1007.00
2023-01-02T08:35:42.266Z,1007.00
2023-01-02T08:36:42.239Z,1007.07
2023-01-02T08:37:46.746Z,1007.08
2023-01-02T08:38:42.209Z,1007.12
2023-01-02T08:39:42.180Z,1007.13
2023-01-02T08:40:42.146Z,1007.17
2023-01-02T08:41:42.126Z,1007.20
2023-01-02T08:42:42.108Z,1007.13
2023-01-02T08:43:42.081Z,1007.18
2023-01-02T08:44:42.076Z,1007.22
2023-01-02T08:45:42.077Z,1007.23
2023-01-02T08:46:43.190Z,1007.21
2023-01-02T08:47:41.985Z,1007.16
2023-01-02T08:48:41.962Z,1007.27
2023-01-02T08:49:41.930Z,1007.28
2023-01-02T08:50:41.906Z,1007.33
2023-01-02T08:51:41.896Z,1007.31
2023-01-02T08:52:41.863Z,1007.33
2023-01-02T08:53:41.841Z,1007.34
2023-01-02T08:54:41.815Z,1007.34
2023-01-02T08:55:41.794Z,1007.38
2023-01-02T08:56:41.783Z,1007.33
2023-01-02T08:57:41.745Z,1007.38
2023-01-02T08:58:41.720Z,1007.34
2023-01-02T08:59:41.703Z,1007.40
2023-01-02T09:00:41.688Z,1007.46
2023-01-02T09:01:41.750Z,1007.46
2023-01-02T09:02:41.818Z,1007.43
2023-01-02T09:03:41.649Z,1007.51
2023-01-02T09:04:41.578Z,1007.58
2023-01-02T09:05:41.555Z,1007.61
2023-01-02T09:06:41.563Z,1007.62
2023-01-02T09:07:41.519Z,1007.61
2023-01-02T09:08:41.493Z,1007.70
2023-01-02T09:09:41.460Z,1007.78
2023-01-02T09:10:41.434Z,1007.71
2023-01-02T09:11:41.419Z,1007.70
2023-01-02T09:12:41.404Z,1007.73
2023-01-02T09:13:41.367Z,1007.85
2023-01-02T09:14:41.343Z,1007.80
2023-01-02T09:15:41.376Z,1007.91
2023-01-02T09:16:41.314Z,1007.93
2023-01-02T09:17:41.286Z,1008.03
2023-01-02T09:18:41.253Z,1008.08
2023-01-02T09:19:41.228Z,1008.09
2023-01-02T09:20:41.209Z,1008.12
2023-01-02T09:21:41.181Z,1008.18
2023-01-02T09:22:41.156Z,1008.19
2023-01-02T09:23:41.127Z,1008.24
2023-01-02T09:24:41.112Z,1008.11
2023-01-02T09:25:41.077Z,1008.20
2023-01-02T09:26:41.059Z,1008.15
2023-01-02T09:27:41.035Z,1008.16
2023-01-02T09:28:41.023Z,1008.31
2023-01-02T09:29:40.982Z,1008.44
2023-01-02T09:30:41.023Z,1008.48
2023-01-02T09:31:41.007Z,1008.62
2023-01-02T09:32:40.944Z,1008.63
2023-01-02T09:33:40.902Z,1008.68
2023-01-02T09:34:40.875Z,1008.70
2023-01-02T09:35:40.840Z,1008.79
2023-01-02T09:36:40.829Z,1008.81
2023-01-02T09:37:40.790Z,1008.92
2023-01-02T09:38:40.780Z,1008.88
2023-01-02T09:39:40.743Z,1008.87
2023-01-02T09:40:40.723Z,1008.92
2023-01-02T09:41:40.729Z,1008.92
2023-01-02T09:42:40.679Z,1008.94
2023-01-02T09:43:40.648Z,1008.94
2023-01-02T09:44:40.634Z,1008.95
2023-01-02T09:45:40.614Z,1009.01
2023-01-02T09:46:40.682Z,1009.09
2023-01-02T09:47:40.557Z,1009.06
2023-01-02T09:48:40.555Z,1009.12
2023-01-02T09:49:40.512Z,1009.11
2023-01-02T09:50:40.483Z,1009.13
2023-01-02T09:51:40.457Z,1009.15
2023-01-02T09:52:40.440Z,1009.11
2023-01-02T09:53:40.411Z,1009.16
2023-01-02T09:54:40.389Z,1009.18
2023-01-02T09:55:40.363Z,1009.21
2023-01-02T09:56:40.338Z,1009.28
2023-01-02T09:57:40.324Z,1009.23
2023-01-02T09:58:40.292Z,1009.25
2023-01-02T09:59:40.262Z,1009.28
2023-01-02T10:00:40.239Z,1009.29
2023-01-02T10:01:40.275Z,1009.28
2023-01-02T10:02:40.254Z,1009.25
2023-01-02T10:03:40.270Z,1009.30
2023-01-02T10:04:40.288Z,1009.18
2023-01-02T10:05:40.122Z,1009.25
2023-01-02T10:06:40.093Z,1009.28
2023-01-02T10:07:40.076Z,1009.25
2023-01-02T10:08:40.059Z,1009.30
2023-01-02T10:09:40.022Z,1009.33
2023-01-02T10:10:40.012Z,1009.32
2023-01-02T10:11:39.975Z,1009.26
2023-01-02T10:12:39.956Z,1009.32
2023-01-02T10:14:44.226Z,1009.39
2023-01-02T10:15:39.986Z,1009.39
2023-01-02T10:16:39.854Z,1009.39
2023-01-02T10:17:39.831Z,1009.38
2023-01-02T10:18:39.810Z,1009.39
2023-01-02T10:19:39.786Z,1009.42
2023-01-02T10:20:39.787Z,1009.47
2023-01-02T10:21:39.736Z,1009.52
2023-01-02T10:22:39.714Z,1009.54
2023-01-02T10:23:39.706Z,1009.60
2023-01-02T10:24:39.663Z,1009.64
2023-01-02T10:25:39.644Z,1009.67
2023-01-02T10:26:39.613Z,1009.69
2023-01-02T10:27:39.583Z,1009.69
2023-01-02T10:28:39.562Z,1009.72
2023-01-02T10:29:39.533Z,1009.70
2023-01-02T10:30:39.518Z,1009.70
2023-01-02T10:31:39.538Z,1009.77
2023-01-02T10:32:39.466Z,1009.74
2023-01-02T10:33:39.447Z,1009.76
2023-01-02T10:34:39.438Z,1009.79
2023-01-02T10:35:39.389Z,1009.80
2023-01-02T10:36:39.406Z,1009.79
2023-01-02T10:37:39.345Z,1009.76
2023-01-02T10:38:39.324Z,1009.77
2023-01-02T10:39:39.296Z,1009.74
2023-01-02T10:40:39.277Z,1009.78
2023-01-02T10:41:39.253Z,1009.80
2023-01-02T10:42:39.240Z,1009.74
2023-01-02T10:43:39.199Z,1009.77
2023-01-02T10:44:39.176Z,1009.79
2023-01-02T10:45:39.150Z,1009.72
2023-01-02T10:46:39.229Z,1009.75
2023-01-02T10:47:39.133Z,1009.75
2023-01-02T10:48:39.084Z,1009.74
2023-01-02T10:49:39.051Z,1009.76
2023-01-02T10:50:39.044Z,1009.78
2023-01-02T10:51:39.007Z,1009.85
2023-01-02T10:52:39.016Z,1009.83
2023-01-02T10:53:38.954Z,1009.83
2023-01-02T10:54:42.762Z,1009.89
2023-01-02T10:55:38.911Z,1009.89
2023-01-02T10:56:38.897Z,1009.95
2023-01-02T10:57:38.862Z,1009.90
2023-01-02T10:58:38.839Z,1009.90
2023-01-02T10:59:38.815Z,1009.92
2023-01-02T11:00:38.844Z,1009.91
2023-01-02T11:01:38.921Z,1009.89
2023-01-02T11:02:38.914Z,1009.86
2023-01-02T11:03:38.721Z,1009.86
2023-01-02T11:04:38.695Z,1009.85
2023-01-02T11:05:38.669Z,1009.85
2023-01-02T11:06:39.989Z,1009.83
2023-01-02T11:07:38.618Z,1009.73
2023-01-02T11:08:38.631Z,1009.72
2023-01-02T11:09:38.577Z,1009.71
2023-01-02T11:10:38.558Z,1009.73
2023-01-02T11:11:38.522Z,1009.75
2023-01-02T11:12:38.532Z,1009.69
2023-01-02T11:13:38.474Z,1009.65
2023-01-02T11:14:38.451Z,1009.75
2023-01-02T11:15:38.425Z,1009.75
2023-01-02T11:16:38.478Z,1009.75
2023-01-02T11:17:38.378Z,1009.83
2023-01-02T11:18:38.356Z,1009.79
2023-01-02T11:19:38.329Z,1009.82
2023-01-02T11:20:38.311Z,1009.84
2023-01-02T11:21:38.279Z,1009.87
2023-01-02T11:22:38.273Z,1009.87
2023-01-02T11:23:38.243Z,1009.89
2023-01-02T11:24:38.236Z,1009.93
2023-01-02T11:25:38.205Z,1009.89
2023-01-02T11:26:38.165Z,1009.87
2023-01-02T11:27:38.145Z,1009.86
2023-01-02T11:28:38.124Z,1009.87
2023-01-02T11:29:38.086Z,1009.90
2023-01-02T11:30:38.069Z,1009.90
2023-01-02T11:31:38.125Z,1009.97
2023-01-02T11:32:38.018Z,1010.02
2023-01-02T11:33:37.998Z,1010.10
2023-01-02T11:34:37.995Z,1010.08
2023-01-02T11:35:37.970Z,1010.16
2023-01-02T11:36:37.940Z,1010.15
2023-01-02T11:37:37.898Z,1010.17
2023-01-02T11:38:37.873Z,1010.18
2023-01-02T11:39:37.847Z,1010.24
2023-01-02T11:40:37.856Z,1010.23
2023-01-02T11:41:37.817Z,1010.24
2023-01-02T11:42:37.793Z,1010.22
2023-01-02T11:43:37.750Z,1010.21
2023-01-02T11:44:37.728Z,1010.28
2023-01-02T11:45:37.773Z,1010.30
2023-01-02T11:46:37.693Z,1010.29
2023-01-02T11:47:37.653Z,1010.36
2023-01-02T11:48:37.638Z,1010.35
2023-01-02T11:49:37.604Z,1010.34
2023-01-02T11:50:37.600Z,1010.38
2023-01-02T11:51:37.575Z,1010.45
2023-01-02T11:52:37.540Z,1010.46
2023-01-02T11:53:37.512Z,1010.51
2023-01-02T11:54:37.492Z,1010.47
2023-01-02T11:55:37.460Z,1010.51
2023-01-02T11:56:37.465Z,1010.61
2023-01-02T11:57:37.422Z,1010.58
2023-01-02T11:58:37.397Z,1010.55
2023-01-02T11:59:37.371Z,1010.54
2023-01-02T12:00:37.346Z,1010.52
2023-01-02T12:01:37.369Z,1010.53
2023-01-02T12:02:37.338Z,1010.55
2023-01-02T12:03:37.319Z,1010.53
2023-01-02T12:04:37.253Z,1010.58
2023-01-02T12:05:37.221Z,1010.49
2023-01-02T12:06:37.197Z,1010.53